Time;durP1;ratioP1;P1;durP2;ratioP2;P2;SDS_P1;SDS_P2;PMS_P1;PMS_P2;Temp;Humidity;BMP_temperature;BMP_pressure;BME280_temperature;BME280_humidity;BME280_pressure;Samples;Min_cycle;Max_cycle;Signal;HPM_P1;HPM_P2
2024/02/18 00:00:29;;;;;;;10.10;4.03;;;;;;;7.21;100.00;102974.06;6226848;28;20427;-81
2024/02/18 00:03:32;;;;;;;6.93;3.55;;;;;;;7.16;100.00;102971.47;6227061;28;20050;-80
2024/02/18 00:06:33;;;;;;;7.07;3.60;;;;;;;7.14;100.00;102972.34;6227922;28;20454;-81
2024/02/18 00:09:34;;;;;;;8.18;4.40;;;;;;;7.10;100.00;102971.50;6227257;28;20046;-81
2024/02/18 00:12:36;;;;;;;9.70;3.80;;;;;;;7.08;100.00;102976.69;6227899;28;20054;-80
2024/02/18 00:15:38;;;;;;;7.90;4.28;;;;;;;7.02;100.00;102961.03;6227328;28;20061;-81
2024/02/18 00:18:40;;;;;;;9.52;4.57;;;;;;;6.99;100.00;102968.03;6227285;28;20050;-81
2024/02/18 00:21:42;;;;;;;10.75;3.88;;;;;;;6.97;100.00;102965.41;6227534;28;20057;-80
2024/02/18 00:24:43;;;;;;;6.97;3.80;;;;;;;6.88;100.00;102961.97;6226983;28;20457;-81
2024/02/18 00:27:44;;;;;;;7.43;3.72;;;;;;;6.89;100.00;102961.94;6226848;28;20057;-81
2024/02/18 00:30:49;;;;;;;11.70;6.55;;;;;;;6.81;100.00;102956.75;6227146;28;20046;-80
2024/02/18 00:33:51;;;;;;;12.77;6.38;;;;;;;6.79;100.00;102950.66;6227187;28;20053;-81
2024/02/18 00:36:53;;;;;;;18.00;6.75;;;;;;;6.74;100.00;102941.09;6227161;28;20057;-81
2024/02/18 00:39:54;;;;;;;10.73;5.40;;;;;;;6.67;100.00;102934.13;6226068;28;20046;-80
2024/02/18 00:42:55;;;;;;;7.65;4.13;;;;;;;6.64;100.00;102932.41;6226891;28;20048;-81
2024/02/18 00:45:56;;;;;;;6.63;4.28;;;;;;;6.56;100.00;102926.31;6226614;28;20049;-82
2024/02/18 00:48:59;;;;;;;9.18;4.38;;;;;;;6.52;100.00;102930.66;6226466;28;20057;-80
2024/02/18 00:52:00;;;;;;;11.48;4.43;;;;;;;6.51;100.00;102926.31;6226707;28;20354;-80
2024/02/18 00:55:02;;;;;;;9.43;4.68;;;;;;;6.47;100.00;102921.09;6226624;28;20078;-80
2024/02/18 00:58:04;;;;;;;12.65;4.57;;;;;;;6.44;100.00;102928.94;6226052;28;20061;-80
2024/02/18 01:01:05;;;;;;;10.35;4.65;;;;;;;6.43;100.00;102925.44;6226619;28;20354;-81
2024/02/18 01:04:08;;;;;;;12.68;5.78;;;;;;;6.38;100.00;102931.56;6226353;28;20418;-82
2024/02/18 01:07:10;;;;;;;8.60;4.25;;;;;;;6.33;100.00;102934.19;6226143;28;20425;-80
2024/02/18 01:10:11;;;;;;;8.82;4.28;;;;;;;6.25;100.00;102917.63;6225876;28;20295;-82
2024/02/18 01:13:12;;;;;;;9.30;4.97;;;;;;;6.24;100.00;102918.50;6226783;28;20046;-82
2024/02/18 01:16:14;;;;;;;7.03;3.83;;;;;;;6.22;100.00;102922.84;6226121;28;20076;-81
2024/02/18 01:19:16;;;;;;;10.25;4.78;;;;;;;6.17;100.00;102919.38;6226153;28;20065;-82
2024/02/18 01:22:19;;;;;;;6.95;4.00;;;;;;;6.16;100.00;102913.28;6226458;28;20050;-81
2024/02/18 01:25:20;;;;;;;9.80;4.38;;;;;;;6.13;100.00;102908.06;6226319;28;20054;-81
2024/02/18 01:28:23;;;;;;;12.38;5.15;;;;;;;6.14;100.00;102906.34;6225666;28;20366;-82
2024/02/18 01:31:24;;;;;;;5.30;3.75;;;;;;;6.12;100.00;102903.72;6226118;28;20046;-82
2024/02/18 01:34:27;;;;;;;8.75;5.22;;;;;;;6.09;100.00;102906.34;6226213;28;20464;-81
2024/02/18 01:37:28;;;;;;;11.00;4.32;;;;;;;6.08;100.00;102908.06;6225319;28;20060;-82
2024/02/18 01:40:29;;;;;;;8.07;4.72;;;;;;;6.09;100.00;102901.13;6225556;28;20073;-80
2024/02/18 01:43:31;;;;;;;8.98;5.07;;;;;;;6.06;100.00;102899.38;6225834;28;20046;-81
2024/02/18 01:46:32;;;;;;;7.85;4.50;;;;;;;6.06;100.00;102901.13;6225863;28;20362;-81
2024/02/18 01:49:35;;;;;;;8.73;4.80;;;;;;;6.07;100.00;102893.28;6225530;28;20068;-81
2024/02/18 01:52:39;;;;;;;12.00;5.50;;;;;;;6.06;100.00;102891.53;6226256;28;20073;-80
2024/02/18 01:55:43;;;;;;;8.70;4.13;;;;;;;6.07;100.00;102895.00;6225659;28;20045;-82
2024/02/18 01:58:45;;;;;;;10.23;4.72;;;;;;;6.04;100.00;102884.56;6225451;28;20204;-80
2024/02/18 02:01:46;;;;;;;11.20;5.63;;;;;;;6.06;100.00;102882.84;6225756;28;20053;-79
2024/02/18 02:04:49;;;;;;;10.30;4.93;;;;;;;6.07;100.00;102875.00;6225678;28;20049;-81
2024/02/18 02:07:50;;;;;;;10.30;5.57;;;;;;;6.06;100.00;102873.25;6225351;28;20050;-80
2024/02/18 02:10:52;;;;;;;14.18;6.47;;;;;;;6.15;100.00;102871.53;6226152;28;20049;-79
2024/02/18 02:13:54;;;;;;;19.10;6.47;;;;;;;6.22;100.00;102881.06;6225745;28;20460;-80
2024/02/18 02:16:55;;;;;;;14.73;6.00;;;;;;;6.26;100.00;102867.16;6226497;28;20053;-80
2024/02/18 02:19:58;;;;;;;10.52;5.93;;;;;;;6.28;100.00;102868.91;6229124;28;20068;-80
2024/02/18 02:22:59;;;;;;;18.33;6.25;;;;;;;6.31;100.00;102868.91;6230637;28;20057;-80
2024/02/18 02:26:00;;;;;;;16.35;7.18;;;;;;;6.33;100.00;102872.38;6231167;28;20050;-80
2024/02/18 02:29:11;;;;;;;17.67;8.25;;;;;;;6.39;100.00;102873.22;6231486;28;20050;-81
2024/02/18 02:32:12;;;;;;;16.75;7.28;;;;;;;6.45;100.00;102861.03;6231905;28;20520;-80
2024/02/18 02:35:15;;;;;;;13.20;7.10;;;;;;;6.46;100.00;102856.69;6230838;28;20049;-80
2024/02/18 02:38:16;;;;;;;17.38;7.10;;;;;;;6.49;100.00;102852.31;6229457;28;20045;-80
2024/02/18 02:41:18;;;;;;;14.68;7.22;;;;;;;6.52;100.00;102846.22;6229849;28;20046;-80
2024/02/18 02:44:21;;;;;;;15.85;7.38;;;;;;;6.58;100.00;102835.75;6230226;28;20132;-81
2024/02/18 02:47:22;;;;;;;18.27;7.82;;;;;;;6.65;100.00;102834.84;6230300;28;20054;-80
2024/02/18 02:50:23;;;;;;;18.85;8.32;;;;;;;6.71;100.00;102839.19;6229701;28;20050;-80
2024/02/18 02:53:27;;;;;;;23.40;8.93;;;;;;;6.72;100.00;102838.31;6229840;28;20050;-81
2024/02/18 02:56:28;;;;;;;18.05;7.50;;;;;;;6.72;100.00;102830.47;6229467;28;20049;-81
2024/02/18 02:59:31;;;;;;;24.58;9.23;;;;;;;6.71;100.00;102821.75;6229352;28;20056;-81
2024/02/18 03:02:32;;;;;;;26.65;10.52;;;;;;;6.75;100.00;102822.63;6229465;28;20050;-80
2024/02/18 03:05:33;;;;;;;30.45;10.95;;;;;;;6.73;100.00;102809.56;6229242;28;20046;-81
2024/02/18 03:08:34;;;;;;;24.52;10.05;;;;;;;6.70;100.00;102808.72;6228825;28;20513;-80
2024/02/18 03:11:36;;;;;;;24.63;10.15;;;;;;;6.69;100.00;102800.00;6229183;28;20046;-81
2024/02/18 03:14:38;;;;;;;22.70;9.50;;;;;;;6.70;100.00;102799.13;6228850;28;20350;-80
2024/02/18 03:17:40;;;;;;;26.27;9.73;;;;;;;6.70;100.00;102795.66;6228497;28;20054;-81
2024/02/18 03:20:41;;;;;;;25.42;10.85;;;;;;;6.70;100.00;102796.50;6228795;28;20358;-81
2024/02/18 03:23:43;;;;;;;30.33;10.52;;;;;;;6.66;100.00;102793.91;6228760;28;20057;-80
2024/02/18 03:26:44;;;;;;;28.83;10.68;;;;;;;6.60;100.00;102793.06;6228853;28;20366;-80
2024/02/18 03:29:47;;;;;;;27.73;11.02;;;;;;;6.57;100.00;102787.00;6227915;28;20057;-81
2024/02/18 03:32:48;;;;;;;25.63;10.35;;;;;;;6.58;100.00;102791.34;6228887;28;20053;-80
2024/02/18 03:35:50;;;;;;;31.05;12.02;;;;;;;6.60;100.00;102787.84;6228007;28;20339;-81
2024/02/18 03:38:51;;;;;;;26.90;9.68;;;;;;;6.60;100.00;102784.38;6228340;28;20057;-80
2024/02/18 03:41:53;;;;;;;18.95;8.23;;;;;;;6.63;100.00;102780.88;6228519;28;20320;-80
2024/02/18 03:44:56;;;;;;;25.88;9.52;;;;;;;6.61;100.00;102773.03;6224851;28;20042;-80
2024/02/18 03:47:57;;;;;;;27.50;10.13;;;;;;;6.64;100.00;102772.19;6227811;28;20049;-80
2024/02/18 03:50:58;;;;;;;29.08;10.85;;;;;;;6.66;100.00;102766.06;6228152;28;20434;-80
2024/02/18 03:54:00;;;;;;;30.70;11.40;;;;;;;6.72;100.00;102768.66;6227797;28;20042;-80
2024/02/18 03:57:01;;;;;;;34.42;13.13;;;;;;;6.74;100.00;102763.41;6227990;28;20053;-81
2024/02/18 04:00:05;;;;;;;43.13;15.00;;;;;;;6.80;100.00;102760.75;6226376;28;20427;-80
2024/02/18 04:03:07;;;;;;;34.60;13.55;;;;;;;6.85;100.00;102765.06;6228347;28;20054;-80
2024/02/18 04:06:08;;;;;;;33.88;13.02;;;;;;;6.89;100.00;102758.09;6227339;28;20397;-80
2024/02/18 04:09:11;;;;;;;48.75;15.05;;;;;;;6.92;100.00;102754.59;6227292;28;20493;-81
2024/02/18 04:12:12;;;;;;;41.45;15.55;;;;;;;6.95;100.00;102749.34;6227630;28;20053;-81
2024/02/18 04:15:16;;;;;;;44.67;14.70;;;;;;;6.99;100.00;102740.59;6227337;28;20057;-81
2024/02/18 04:18:17;;;;;;;38.35;13.65;;;;;;;7.04;100.00;102725.75;6226902;28;20181;-81
2024/02/18 04:21:18;;;;;;;32.45;12.88;;;;;;;7.07;100.00;102729.22;6227480;28;20461;-80
2024/02/18 04:24:20;;;;;;;40.33;14.38;;;;;;;7.12;100.00;102724.81;6227019;28;20056;-80
2024/02/18 04:27:21;;;;;;;38.35;15.27;;;;;;;7.19;100.00;102728.28;6224601;28;20054;-80
2024/02/18 04:30:24;;;;;;;40.33;15.10;;;;;;;7.24;100.00;102723.88;6226133;28;20050;-81
2024/02/18 04:33:25;;;;;;;41.70;14.85;;;;;;;7.32;100.00;102726.44;6227083;28;20053;-80
2024/02/18 04:36:27;;;;;;;44.80;16.25;;;;;;;7.37;100.00;102717.66;6226812;28;20053;-80
2024/02/18 04:39:28;;;;;;;44.88;16.67;;;;;;;7.41;100.00;102715.03;6226592;28;20438;-80
2024/02/18 04:42:29;;;;;;;43.20;16.08;;;;;;;7.50;100.00;102722.81;6225619;28;20045;-79
2024/02/18 04:45:32;;;;;;;42.03;14.70;;;;;;;7.53;100.00;102720.16;6226461;28;20060;-80
2024/02/18 04:48:38;;;;;;;36.05;14.95;;;;;;;7.61;100.00;102727.03;6226355;28;20053;-80
2024/02/18 04:51:39;;;;;;;41.30;15.85;;;;;;;7.67;100.00;102725.25;6227014;28;20046;-81
2024/02/18 04:54:41;;;;;;;37.08;15.50;;;;;;;7.76;100.00;102717.31;6226442;28;20580;-80
2024/02/18 04:57:42;;;;;;;42.53;14.85;;;;;;;7.77;100.00;102717.31;6226482;28;20054;-80
2024/02/18 05:00:45;;;;;;;43.33;15.32;;;;;;;7.71;100.00;102714.75;6226745;28;20069;-80
2024/02/18 05:03:46;;;;;;;41.83;15.02;;;;;;;7.77;100.00;102705.97;6226152;28;20054;-80
2024/02/18 05:06:48;;;;;;;41.85;14.98;;;;;;;7.76;100.00;102714.69;6226131;28;20046;-80
2024/02/18 05:09:49;;;;;;;38.45;14.50;;;;;;;7.80;100.00;102700.69;6225279;28;20350;-79
2024/02/18 05:12:51;;;;;;;37.80;14.98;;;;;;;7.71;100.00;102690.31;6226198;28;20130;-80
2024/02/18 05:15:53;;;;;;;42.53;15.15;;;;;;;7.70;100.00;102688.59;6225771;28;20394;-81
2024/02/18 05:18:55;;;;;;;36.08;14.15;;;;;;;7.73;100.00;102683.34;6226109;28;20046;-81
2024/02/18 05:21:56;;;;;;;47.42;15.57;;;;;;;7.74;100.00;102685.06;6225726;28;20042;-79
2024/02/18 05:24:57;;;;;;;35.75;14.52;;;;;;;7.76;100.00;102673.69;6225247;28;20367;-80
2024/02/18 05:27:59;;;;;;;45.45;15.73;;;;;;;7.74;100.00;102675.47;6225536;28;20046;-80
2024/02/18 05:31:02;;;;;;;43.63;15.30;;;;;;;7.77;100.00;102678.06;6225713;28;20068;-80
2024/02/18 05:34:03;;;;;;;42.33;14.82;;;;;;;7.79;100.00;102678.03;6225580;28;20346;-80
2024/02/18 05:37:05;;;;;;;55.78;17.23;;;;;;;7.80;100.00;102674.53;6225701;28;20327;-80
2024/02/18 05:40:07;;;;;;;54.10;16.63;;;;;;;7.84;100.00;102668.38;6225379;28;20354;-80
2024/02/18 05:43:09;;;;;;;40.17;12.95;;;;;;;7.91;100.00;102664.81;6226172;28;20422;-80
2024/02/18 05:46:12;;;;;;;41.08;14.82;;;;;;;7.93;100.00;102667.41;6225676;28;20095;-80
2024/02/18 05:49:13;;;;;;;43.75;14.57;;;;;;;7.96;100.00;102668.25;6225215;28;20362;-80
2024/02/18 05:52:14;;;;;;;38.53;14.93;;;;;;;7.97;100.00;102659.50;6226280;28;20053;-81
2024/02/18 05:55:16;;;;;;;47.63;16.58;;;;;;;7.99;100.00;102655.09;6230753;28;20054;-79
2024/02/18 05:58:17;;;;;;;37.90;14.45;;;;;;;8.04;100.00;102647.19;6230140;28;20050;-79
2024/02/18 06:01:20;;;;;;;42.55;14.07;;;;;;;8.05;100.00;102643.72;6230622;28;20453;-80
2024/02/18 06:04:21;;;;;;;43.08;15.10;;;;;;;8.06;100.00;102633.22;6230350;28;20045;-80
2024/02/18 06:07:23;;;;;;;41.85;15.60;;;;;;;8.08;100.00;102636.69;6230340;28;20469;-80
2024/02/18 06:10:24;;;;;;;37.17;15.38;;;;;;;8.12;100.00;102629.63;6230365;28;20060;-80
2024/02/18 06:13:26;;;;;;;46.75;15.63;;;;;;;8.12;100.00;102637.50;6229790;28;20430;-79
2024/02/18 06:16:28;;;;;;;47.33;15.75;;;;;;;8.13;100.00;102627.03;6229576;28;20346;-79
2024/02/18 06:19:30;;;;;;;39.58;14.98;;;;;;;8.13;100.00;102619.16;6227799;28;20042;-79
2024/02/18 06:22:31;;;;;;;41.88;14.57;;;;;;;8.14;100.00;102615.66;6229588;28;20042;-81
2024/02/18 06:25:36;;;;;;;41.13;14.93;;;;;;;8.16;100.00;102610.38;6228749;28;20045;-80
2024/02/18 06:28:37;;;;;;;36.97;15.07;;;;;;;8.18;100.00;102611.25;6228925;28;20060;-80
2024/02/18 06:31:40;;;;;;;38.47;15.73;;;;;;;8.20;100.00;102601.59;6229334;28;20041;-80
2024/02/18 06:34:41;;;;;;;47.35;15.25;;;;;;;8.20;100.00;102596.38;6229740;28;20050;-80
2024/02/18 06:37:43;;;;;;;32.72;14.50;;;;;;;8.23;100.00;102596.34;6228974;28;20061;-80
2024/02/18 06:40:44;;;;;;;36.72;14.35;;;;;;;8.23;100.00;102593.72;6228898;28;20362;-80
2024/02/18 06:43:45;;;;;;;41.53;16.25;;;;;;;8.29;100.00;102596.22;6229315;28;20077;-80
2024/02/18 06:46:50;;;;;;;40.80;14.88;;;;;;;8.31;100.00;102588.34;6228603;28;20455;-80
2024/02/18 06:49:52;;;;;;;38.97;14.38;;;;;;;8.35;100.00;102584.78;6229281;28;20057;-79
2024/02/18 06:52:53;;;;;;;37.00;14.23;;;;;;;8.35;100.00;102583.03;6229710;28;20038;-79
2024/02/18 06:55:54;;;;;;;32.95;13.82;;;;;;;8.42;100.00;102575.16;6228933;28;20050;-79
2024/02/18 06:58:56;;;;;;;40.47;13.13;;;;;;;8.42;100.00;102570.75;6228988;28;20053;-80
2024/02/18 07:01:58;;;;;;;42.65;14.82;;;;;;;8.43;100.00;102563.75;6229000;28;20038;-79
2024/02/18 07:05:00;;;;;;;31.95;12.73;;;;;;;8.49;100.00;102559.28;6228427;28;20041;-81
2024/02/18 07:08:04;;;;;;;35.53;13.73;;;;;;;8.53;100.00;102555.72;6228465;28;20159;-80
2024/02/18 07:11:05;;;;;;;34.78;12.80;;;;;;;8.57;100.00;102554.78;6228457;28;20189;-79
2024/02/18 07:14:06;;;;;;;32.67;11.23;;;;;;;8.60;100.00;102546.91;6228458;28;20045;-79
2024/02/18 07:17:09;;;;;;;35.95;12.02;;;;;;;8.67;100.00;102544.16;6228733;28;20056;-79
2024/02/18 07:20:13;;;;;;;33.28;11.80;;;;;;;8.75;100.00;102543.16;6227820;28;20141;-79
2024/02/18 07:23:15;;;;;;;32.83;12.73;;;;;;;8.77;100.00;102537.91;6228048;28;20124;-79
2024/02/18 07:26:16;;;;;;;32.53;11.93;;;;;;;8.80;100.00;102532.59;6228039;28;20050;-81
2024/02/18 07:29:18;;;;;;;28.52;11.43;;;;;;;8.81;100.00;102529.97;6227441;28;20053;-74
2024/02/18 07:32:22;;;;;;;27.40;11.68;;;;;;;8.83;100.00;102530.78;6226999;28;20454;-81
2024/02/18 07:35:23;;;;;;;33.50;12.55;;;;;;;8.90;100.00;102526.28;6228184;28;20065;-79
2024/02/18 07:38:26;;;;;;;25.02;9.55;;;;;;;8.97;100.00;102521.81;6227808;28;20054;-81
2024/02/18 07:41:27;;;;;;;26.80;10.82;;;;;;;9.03;100.00;102519.94;6228393;28;20053;-81
2024/02/18 07:44:29;;;;;;;28.25;10.57;;;;;;;9.08;100.00;102512.88;6227792;28;20066;-81
2024/02/18 07:47:32;;;;;;;29.42;12.63;;;;;;;9.09;100.00;102509.34;6227744;28;20057;-81
2024/02/18 07:50:33;;;;;;;22.63;8.68;;;;;;;9.11;100.00;102507.53;6228052;28;20133;-81
2024/02/18 07:53:35;;;;;;;23.20;10.05;;;;;;;9.11;100.00;102501.44;6225296;28;20050;-81
2024/02/18 07:56:42;;;;;;;25.40;9.82;;;;;;;9.19;100.00;102501.28;6227105;28;20049;-79
2024/02/18 07:59:45;;;;;;;21.48;9.52;;;;;;;9.18;100.00;102495.19;6226847;28;20057;-79
2024/02/18 08:02:47;;;;;;;23.90;9.20;;;;;;;9.25;100.00;102498.53;6227905;28;20047;-80
2024/02/18 08:05:49;;;;;;;23.67;8.27;;;;;;;9.32;100.00;102497.53;6226997;28;20049;-79
2024/02/18 08:08:50;;;;;;;22.92;7.68;;;;;;;9.39;100.00;102493.88;6226739;28;20060;-81
2024/02/18 08:11:51;;;;;;;17.80;7.90;;;;;;;9.45;100.00;102483.28;6227631;28;20468;-81
2024/02/18 08:14:53;;;;;;;16.70;7.20;;;;;;;9.49;100.00;102473.56;6227360;28;20050;-79
2024/02/18 08:17:55;;;;;;;21.23;7.47;;;;;;;9.54;100.00;102480.47;6225922;28;20046;-79
2024/02/18 08:20:56;;;;;;;18.95;7.65;;;;;;;9.59;100.00;102472.50;6227764;28;20438;-79
2024/02/18 08:23:58;;;;;;;14.98;6.38;;;;;;;9.55;100.00;102474.31;6227168;28;20045;-79
2024/02/18 08:27:00;;;;;;;19.02;8.38;;;;;;;9.62;100.00;102465.38;6227354;28;20052;-79
2024/02/18 08:30:02;;;;;;;17.55;7.03;;;;;;;9.68;100.00;102466.19;6226677;28;20089;-81
2024/02/18 08:33:05;;;;;;;14.55;6.63;;;;;;;9.76;100.00;102467.72;6227467;28;20049;-81
2024/02/18 08:36:06;;;;;;;16.60;6.78;;;;;;;9.76;100.00;102462.47;6226663;28;20050;-80
2024/02/18 08:39:07;;;;;;;18.05;6.78;;;;;;;9.80;100.00;102455.38;6227056;28;20058;-79
2024/02/18 08:42:09;;;;;;;19.52;6.82;;;;;;;9.81;100.00;102452.75;6227186;28;20045;-80
2024/02/18 08:45:10;;;;;;;15.02;5.85;;;;;;;9.85;100.00;102449.13;6226817;28;20430;-79
2024/02/18 08:48:13;;;;;;;12.15;5.85;;;;;;;9.95;100.00;102446.28;6226471;28;20057;-80
2024/02/18 08:51:14;;;;;;;16.30;5.65;;;;;;;9.99;100.00;102445.31;6227086;28;20049;-82
2024/02/18 08:54:16;;;;;;;13.15;4.93;;;;;;;10.01;100.00;102440.91;6226605;28;20046;-80
2024/02/18 08:57:17;;;;;;;11.20;4.93;;;;;;;10.06;100.00;102431.16;6226562;28;20061;-79
2024/02/18 09:00:19;;;;;;;11.65;5.28;;;;;;;10.10;100.00;102430.19;6226539;28;20061;-79
2024/02/18 09:03:22;;;;;;;10.43;4.57;;;;;;;10.12;100.00;102428.34;6226384;28;20494;-79
2024/02/18 09:06:23;;;;;;;11.35;4.95;;;;;;;10.15;100.00;102434.41;6226420;28;20045;-79
2024/02/18 09:09:24;;;;;;;14.05;4.75;;;;;;;10.19;100.00;102431.72;6225899;28;20415;-79
2024/02/18 09:12:26;;;;;;;8.15;4.00;;;;;;;10.19;100.00;102429.09;6226535;28;20046;-79
2024/02/18 09:15:27;;;;;;;8.60;3.88;;;;;;;10.21;100.00;102424.66;6225926;28;20056;-79
2024/02/18 09:18:30;;;;;;;9.30;3.85;;;;;;;10.24;100.00;102424.59;6226059;28;20050;-80
2024/02/18 09:21:31;;;;;;;8.43;3.88;;;;;;;10.27;100.00;102420.16;6226276;28;20449;-79
2024/02/18 09:24:32;;;;;;;11.23;4.60;;;;;;;10.31;100.00;102419.19;6225947;28;20053;-78
2024/02/18 09:27:34;;;;;;;9.50;4.32;;;;;;;10.27;100.00;102412.28;6225374;28;20049;-79
2024/02/18 09:30:35;;;;;;;8.88;4.15;;;;;;;10.24;100.00;102414.97;6226012;28;20060;-81
2024/02/18 09:33:42;;;;;;;12.68;4.60;;;;;;;10.18;100.00;102408.97;6225946;28;20046;-81
2024/02/18 09:36:43;;;;;;;9.35;4.15;;;;;;;10.10;100.00;102398.66;6226041;28;20056;-81
2024/02/18 09:39:45;;;;;;;12.18;3.95;;;;;;;10.03;100.00;102402.31;6225451;28;20405;-78
2024/02/18 09:42:50;;;;;;;8.80;3.97;;;;;;;10.06;100.00;102397.00;6225759;28;20053;-78
2024/02/18 09:45:53;;;;;;;15.98;3.72;;;;;;;10.05;100.00;102395.28;6225563;28;20377;-81
2024/02/18 09:48:56;;;;;;;12.65;3.72;;;;;;;10.05;100.00;102401.38;6225231;28;20050;-81
2024/02/18 09:51:59;;;;;;;8.82;3.70;;;;;;;10.08;100.00;102392.56;6225965;28;20042;-80
2024/02/18 09:55:01;;;;;;;9.13;3.60;;;;;;;10.07;100.00;102383.81;6225589;28;20042;-81
2024/02/18 09:58:02;;;;;;;6.35;3.35;;;;;;;10.09;100.00;102389.91;6225271;28;20438;-80
2024/02/18 10:01:04;;;;;;;9.65;3.97;;;;;;;10.08;100.00;102380.31;6225693;28;20168;-81
2024/02/18 10:04:07;;;;;;;9.07;3.35;;;;;;;10.10;100.00;102380.25;6225178;28;20061;-81
2024/02/18 10:07:08;;;;;;;11.77;3.80;;;;;;;10.10;100.00;102373.25;6225604;28;20049;-81
2024/02/18 10:10:10;;;;;;;12.45;3.65;;;;;;;10.16;100.00;102369.59;6225418;28;20050;-81
2024/02/18 10:13:11;;;;;;;8.40;3.47;;;;;;;10.20;100.00;102360.72;6226586;28;20042;-78
2024/02/18 10:16:12;;;;;;;6.65;3.05;;;;;;;10.25;100.00;102365.91;6225680;28;20358;-81
2024/02/18 10:19:15;;;;;;;7.32;2.95;;;;;;;10.25;100.00;102353.63;6225197;28;20046;-79
2024/02/18 10:22:16;;;;;;;7.18;3.60;;;;;;;10.28;100.00;102350.06;6225354;28;20050;-79
2024/02/18 10:25:19;;;;;;;5.95;3.17;;;;;;;10.32;100.00;102347.31;6225477;28;20057;-79
2024/02/18 10:28:21;;;;;;;4.18;2.90;;;;;;;10.28;100.00;102339.56;6224750;28;20056;-79
2024/02/18 10:31:22;;;;;;;6.85;2.88;;;;;;;10.27;100.00;102343.94;6225528;28;20129;-79
2024/02/18 10:34:25;;;;;;;5.75;2.97;;;;;;;10.28;100.00;102334.31;6225144;28;20049;-78
2024/02/18 10:37:30;;;;;;;8.63;3.35;;;;;;;10.25;100.00;102334.38;6224465;28;20053;-78
2024/02/18 10:40:34;;;;;;;6.10;2.90;;;;;;;10.24;100.00;102325.63;6227854;28;20141;-79
2024/02/18 10:43:44;;;;;;;7.32;2.78;;;;;;;10.27;100.00;102317.69;6229239;28;20184;-78
2024/02/18 10:46:48;;;;;;;5.88;2.72;;;;;;;10.23;100.00;102320.41;6229703;28;20053;-78
2024/02/18 10:49:55;;;;;;;5.90;2.50;;;;;;;10.25;100.00;102310.72;6229084;28;20073;-78
2024/02/18 10:53:02;;;;;;;5.32;2.85;;;;;;;10.24;100.00;102311.59;6229678;28;20048;-78
2024/02/18 10:56:11;;;;;;;10.70;2.70;;;;;;;10.15;100.00;102304.81;6229057;28;20050;-79
2024/02/18 10:59:18;;;;;;;5.95;2.95;;;;;;;10.12;100.00;102304.91;6228975;28;20058;-81
2024/02/18 11:02:24;;;;;;;7.53;2.72;;;;;;;10.09;100.00;102299.75;6229087;28;20053;-78
2024/02/18 11:05:32;;;;;;;8.32;3.55;;;;;;;10.10;100.00;102297.06;6229071;28;20048;-78
2024/02/18 11:08:35;;;;;;;7.45;2.47;;;;;;;10.06;100.00;102287.53;6228414;28;20054;-78
2024/02/18 11:11:38;;;;;;;7.15;2.33;;;;;;;10.04;100.00;102281.47;6229153;28;20461;-78
2024/02/18 11:14:40;;;;;;;4.38;2.40;;;;;;;10.06;100.00;102281.44;6228518;28;20049;-79
2024/02/18 11:17:42;;;;;;;4.35;2.85;;;;;;;10.02;100.00;102269.28;6228488;28;20054;-81
2024/02/18 11:20:46;;;;;;;8.68;2.85;;;;;;;9.96;100.00;102274.69;6228776;28;20200;-80
2024/02/18 11:23:47;;;;;;;14.23;3.65;;;;;;;9.97;100.00;102268.53;6228644;28;20083;-78
2024/02/18 11:26:49;;;;;;;5.82;2.90;;;;;;;9.96;100.00;102264.19;6228668;28;20477;-78
2024/02/18 11:29:51;;;;;;;7.30;2.65;;;;;;;9.93;100.00;102257.25;6228254;28;20073;-79
2024/02/18 11:32:53;;;;;;;8.75;2.88;;;;;;;9.90;100.00;102242.44;6228564;28;20049;-79
2024/02/18 11:36:16;;;;;;;7.78;2.70;;;;;;;9.88;100.00;102241.63;6228413;28;20442;-79
2024/02/18 11:39:17;;;;;;;6.22;3.00;;;;;;;9.87;100.00;102239.91;6228050;28;20050;-79
2024/02/18 11:42:21;;;;;;;11.93;4.00;;;;;;;9.90;100.00;102238.94;6228239;28;20065;-79
2024/02/18 11:45:23;;;;;;;7.40;3.58;;;;;;;9.88;100.00;102235.50;6228031;28;20061;-80
2024/02/18 11:48:24;;;;;;;6.78;3.95;;;;;;;9.88;100.00;102217.97;6227943;28;20049;-80
2024/02/18 11:51:28;;;;;;;12.68;3.80;;;;;;;9.92;100.00;102221.38;6228147;28;20141;-80
2024/02/18 11:54:29;;;;;;;10.45;3.97;;;;;;;9.95;100.00;102210.81;6227706;28;20129;-79
2024/02/18 11:57:30;;;;;;;7.45;3.92;;;;;;;9.99;100.00;102212.47;6227822;28;20438;-79
2024/02/18 12:00:32;;;;;;;5.57;3.33;;;;;;;9.95;100.00;102204.66;6227816;28;20052;-79
2024/02/18 12:03:34;;;;;;;9.98;3.85;;;;;;;9.91;100.00;102194.28;6227868;28;20050;-79
2024/02/18 12:06:36;;;;;;;5.85;3.20;;;;;;;9.94;100.00;102190.69;6227739;28;20065;-79
2024/02/18 12:09:38;;;;;;;9.18;4.85;;;;;;;9.94;100.00;102192.44;6227456;28;20061;-80
2024/02/18 12:12:39;;;;;;;14.98;3.95;;;;;;;9.94;100.00;102185.44;6227798;28;20054;-80
2024/02/18 12:15:43;;;;;;;7.85;3.88;;;;;;;9.94;100.00;102179.31;6227594;28;20469;-80
2024/02/18 12:18:44;;;;;;;9.35;4.72;;;;;;;9.90;100.00;102174.19;6227371;28;20056;-80
2024/02/18 12:21:53;;;;;;;10.73;5.00;;;;;;;9.87;100.00;102165.50;6227823;28;20438;-80
2024/02/18 12:24:57;;;;;;;11.20;5.32;;;;;;;9.85;100.00;102152.41;6227212;28;20049;-80
2024/02/18 12:27:58;;;;;;;8.48;4.85;;;;;;;9.86;100.00;102153.28;6226872;28;20172;-80
2024/02/18 12:30:59;;;;;;;13.85;5.05;;;;;;;9.86;100.00;102140.16;6227328;28;20374;-80
2024/02/18 12:34:01;;;;;;;8.50;4.57;;;;;;;9.87;100.00;102132.25;6226949;28;20042;-80
2024/02/18 12:37:04;;;;;;;13.85;5.30;;;;;;;9.77;100.00;102122.91;6227080;28;20046;-80
2024/02/18 12:40:07;;;;;;;16.58;6.15;;;;;;;9.76;100.00;102118.53;6226519;28;20046;-80
2024/02/18 12:43:08;;;;;;;12.95;5.20;;;;;;;9.75;100.00;102108.94;6227119;28;20123;-80
2024/02/18 12:46:10;;;;;;;16.55;6.70;;;;;;;9.73;100.00;102104.66;6226593;28;20358;-80
2024/02/18 12:49:11;;;;;;;13.73;5.53;;;;;;;9.71;100.00;102098.56;6226577;28;20060;-81
2024/02/18 12:52:14;;;;;;;12.32;5.40;;;;;;;9.73;100.00;102084.50;6226474;28;20057;-80
2024/02/18 12:55:16;;;;;;;12.18;5.70;;;;;;;9.69;100.00;102082.03;6225329;28;20048;-80
2024/02/18 12:58:17;;;;;;;10.07;5.22;;;;;;;9.64;100.00;102082.16;6225709;28;20046;-80
2024/02/18 13:01:19;;;;;;;15.23;5.80;;;;;;;9.62;100.00;102069.03;6225476;28;20046;-80
2024/02/18 13:04:21;;;;;;;20.13;6.03;;;;;;;9.66;100.00;102069.84;6225709;28;20077;-80
2024/02/18 13:07:24;;;;;;;11.65;5.57;;;;;;;9.73;100.00;102065.28;6225370;28;20124;-80
2024/02/18 13:10:25;;;;;;;14.30;6.07;;;;;;;9.76;100.00;102057.28;6225523;28;20177;-80
2024/02/18 13:13:28;;;;;;;13.50;6.78;;;;;;;9.73;100.00;102052.16;6224544;28;20046;-80
2024/02/18 13:16:29;;;;;;;10.60;5.38;;;;;;;9.71;100.00;102046.94;6225996;28;20357;-80
2024/02/18 13:19:30;;;;;;;18.88;5.97;;;;;;;9.76;100.00;102033.66;6225621;28;20049;-80
2024/02/18 13:22:33;;;;;;;13.02;5.28;;;;;;;9.79;100.00;102026.56;6225900;28;20057;-80
2024/02/18 13:25:34;;;;;;;10.85;5.50;;;;;;;9.81;100.00;102014.28;6225571;28;20435;-80
2024/02/18 13:28:36;;;;;;;16.20;5.95;;;;;;;9.84;100.00;102005.44;6225676;28;20133;-80
2024/02/18 13:31:37;;;;;;;11.85;5.13;;;;;;;9.80;100.00;102006.44;6225964;28;20050;-80
2024/02/18 13:34:38;;;;;;;13.85;5.85;;;;;;;9.80;100.00;101990.69;6225868;28;20045;-80
2024/02/18 13:37:41;;;;;;;12.82;5.97;;;;;;;9.80;100.00;101985.41;6241663;22;20050;-78
2024/02/18 13:40:43;;;;;;;14.85;6.45;;;;;;;9.80;100.00;101969.66;6245859;28;20052;-78
2024/02/18 13:43:44;;;;;;;10.95;5.97;;;;;;;9.81;100.00;101956.53;6234138;28;20042;-78
2024/02/18 13:46:46;;;;;;;15.10;6.60;;;;;;;9.80;100.00;101960.03;6237263;28;20153;-78
2024/02/18 13:49:47;;;;;;;17.65;7.05;;;;;;;9.79;100.00;101944.34;6232744;28;20434;-77
2024/02/18 13:52:50;;;;;;;13.15;6.82;;;;;;;9.77;100.00;101941.75;6234198;28;20042;-78